sensor_id;sensor_type;location;lat;lon;timestamp;P1;durP1;ratioP1;P2;durP2;ratioP2
70369;SDS011;57790;51.356;-2.906;2023-11-21T00:00:38;1.50;;;0.50;;
70369;SDS011;57790;51.356;-2.906;2023-11-21T00:03:38;4.77;;;0.67;;
70369;SDS011;57790;51.356;-2.906;2023-11-21T00:06:40;3.72;;;0.70;;
70369;SDS011;57790;51.356;-2.906;2023-11-21T00:09:41;4.03;;;0.60;;
70369;SDS011;57790;51.356;-2.906;2023-11-21T00:12:41;4.70;;;0.60;;
70369;SDS011;57790;51.356;-2.906;2023-11-21T00:15:42;4.95;;;0.70;;
70369;SDS011;57790;51.356;-2.906;2023-11-21T00:18:43;3.20;;;0.60;;
70369;SDS011;57790;51.356;-2.906;2023-11-21T00:21:43;4.85;;;0.55;;
70369;SDS011;57790;51.356;-2.906;2023-11-21T00:24:45;4.43;;;0.70;;
70369;SDS011;57790;51.356;-2.906;2023-11-21T00:27:46;3.78;;;0.88;;
70369;SDS011;57790;51.356;-2.906;2023-11-21T00:30:46;5.37;;;0.90;;
70369;SDS011;57790;51.356;-2.906;2023-11-21T00:33:46;6.80;;;1.57;;
70369;SDS011;57790;51.356;-2.906;2023-11-21T00:36:47;3.03;;;0.60;;
70369;SDS011;57790;51.356;-2.906;2023-11-21T00:39:47;5.50;;;0.80;;
70369;SDS011;57790;51.356;-2.906;2023-11-21T00:42:48;4.17;;;0.80;;
70369;SDS011;57790;51.356;-2.906;2023-11-21T00:45:48;3.73;;;0.70;;
70369;SDS011;57790;51.356;-2.906;2023-11-21T00:48:49;3.50;;;0.50;;
70369;SDS011;57790;51.356;-2.906;2023-11-21T00:51:49;6.17;;;0.70;;
70369;SDS011;57790;51.356;-2.906;2023-11-21T00:54:50;5.93;;;0.83;;
70369;SDS011;57790;51.356;-2.906;2023-11-21T00:57:50;2.97;;;0.70;;
70369;SDS011;57790;51.356;-2.906;2023-11-21T01:00:51;4.70;;;0.50;;
70369;SDS011;57790;51.356;-2.906;2023-11-21T01:03:51;4.73;;;0.73;;
70369;SDS011;57790;51.356;-2.906;2023-11-21T01:06:52;3.33;;;0.40;;
70369;SDS011;57790;51.356;-2.906;2023-11-21T01:09:52;3.45;;;0.50;;
70369;SDS011;57790;51.356;-2.906;2023-11-21T01:12:53;4.57;;;0.60;;
70369;SDS011;57790;51.356;-2.906;2023-11-21T01:15:54;3.57;;;0.53;;
70369;SDS011;57790;51.356;-2.906;2023-11-21T01:18:54;4.97;;;0.70;;
70369;SDS011;57790;51.356;-2.906;2023-11-21T01:21:55;3.37;;;0.53;;
70369;SDS011;57790;51.356;-2.906;2023-11-21T01:24:55;2.33;;;0.50;;
70369;SDS011;57790;51.356;-2.906;2023-11-21T01:27:56;3.57;;;0.60;;
70369;SDS011;57790;51.356;-2.906;2023-11-21T01:30:56;2.93;;;0.40;;
70369;SDS011;57790;51.356;-2.906;2023-11-21T01:33:57;4.07;;;0.80;;
70369;SDS011;57790;51.356;-2.906;2023-11-21T01:36:58;4.65;;;0.57;;
70369;SDS011;57790;51.356;-2.906;2023-11-21T01:39:59;4.37;;;0.47;;
70369;SDS011;57790;51.356;-2.906;2023-11-21T01:43:01;2.73;;;0.60;;
70369;SDS011;57790;51.356;-2.906;2023-11-21T01:46:04;3.37;;;0.53;;
70369;SDS011;57790;51.356;-2.906;2023-11-21T01:49:06;4.55;;;0.60;;
70369;SDS011;57790;51.356;-2.906;2023-11-21T01:52:07;4.07;;;0.63;;
70369;SDS011;57790;51.356;-2.906;2023-11-21T01:55:07;3.10;;;0.47;;
70369;SDS011;57790;51.356;-2.906;2023-11-21T01:58:08;3.22;;;0.50;;
70369;SDS011;57790;51.356;-2.906;2023-11-21T02:01:10;3.27;;;0.40;;
70369;SDS011;57790;51.356;-2.906;2023-11-21T02:04:10;3.45;;;0.50;;
70369;SDS011;57790;51.356;-2.906;2023-11-21T02:07:11;3.40;;;0.60;;
70369;SDS011;57790;51.356;-2.906;2023-11-21T02:10:11;3.03;;;0.50;;
70369;SDS011;57790;51.356;-2.906;2023-11-21T02:13:15;3.85;;;0.50;;
70369;SDS011;57790;51.356;-2.906;2023-11-21T02:16:16;2.78;;;0.50;;
70369;SDS011;57790;51.356;-2.906;2023-11-21T02:19:20;4.27;;;0.50;;
70369;SDS011;57790;51.356;-2.906;2023-11-21T02:22:22;2.85;;;0.63;;
70369;SDS011;57790;51.356;-2.906;2023-11-21T02:25:29;3.00;;;0.50;;
70369;SDS011;57790;51.356;-2.906;2023-11-21T02:28:31;4.73;;;0.53;;
70369;SDS011;57790;51.356;-2.906;2023-11-21T02:31:33;2.83;;;0.52;;
70369;SDS011;57790;51.356;-2.906;2023-11-21T02:34:33;1.30;;;0.40;;
70369;SDS011;57790;51.356;-2.906;2023-11-21T02:37:34;3.43;;;0.53;;
70369;SDS011;57790;51.356;-2.906;2023-11-21T02:40:35;2.78;;;0.50;;
70369;SDS011;57790;51.356;-2.906;2023-11-21T02:43:35;2.33;;;0.50;;
70369;SDS011;57790;51.356;-2.906;2023-11-21T02:46:36;4.00;;;0.63;;
70369;SDS011;57790;51.356;-2.906;2023-11-21T02:49:37;1.63;;;0.30;;
70369;SDS011;57790;51.356;-2.906;2023-11-21T02:52:38;2.42;;;0.80;;
70369;SDS011;57790;51.356;-2.906;2023-11-21T02:55:40;4.27;;;0.60;;
70369;SDS011;57790;51.356;-2.906;2023-11-21T02:58:43;1.60;;;0.30;;
70369;SDS011;57790;51.356;-2.906;2023-11-21T03:01:44;1.93;;;0.53;;
70369;SDS011;57790;51.356;-2.906;2023-11-21T03:04:46;4.33;;;0.50;;
70369;SDS011;57790;51.356;-2.906;2023-11-21T03:07:49;2.42;;;0.40;;
70369;SDS011;57790;51.356;-2.906;2023-11-21T03:10:49;1.80;;;0.40;;
70369;SDS011;57790;51.356;-2.906;2023-11-21T03:13:49;3.17;;;0.50;;
70369;SDS011;57790;51.356;-2.906;2023-11-21T03:16:50;2.43;;;0.50;;
70369;SDS011;57790;51.356;-2.906;2023-11-21T03:19:50;1.93;;;0.40;;
70369;SDS011;57790;51.356;-2.906;2023-11-21T03:22:52;2.05;;;0.38;;
70369;SDS011;57790;51.356;-2.906;2023-11-21T03:25:53;1.93;;;0.50;;
70369;SDS011;57790;51.356;-2.906;2023-11-21T03:28:54;3.03;;;0.50;;
70369;SDS011;57790;51.356;-2.906;2023-11-21T03:31:54;3.08;;;0.65;;
70369;SDS011;57790;51.356;-2.906;2023-11-21T03:34:57;2.23;;;0.60;;
70369;SDS011;57790;51.356;-2.906;2023-11-21T03:37:58;1.58;;;0.47;;
70369;SDS011;57790;51.356;-2.906;2023-11-21T03:40:58;1.80;;;0.47;;
70369;SDS011;57790;51.356;-2.906;2023-11-21T03:43:58;3.73;;;0.60;;
70369;SDS011;57790;51.356;-2.906;2023-11-21T03:46:59;1.80;;;0.47;;
70369;SDS011;57790;51.356;-2.906;2023-11-21T03:49:59;1.73;;;0.50;;
70369;SDS011;57790;51.356;-2.906;2023-11-21T03:53:00;1.33;;;0.50;;
70369;SDS011;57790;51.356;-2.906;2023-11-21T03:56:01;3.03;;;0.60;;
70369;SDS011;57790;51.356;-2.906;2023-11-21T03:59:02;1.92;;;0.60;;
70369;SDS011;57790;51.356;-2.906;2023-11-21T04:02:03;3.95;;;0.60;;
70369;SDS011;57790;51.356;-2.906;2023-11-21T04:05:04;3.20;;;0.73;;
70369;SDS011;57790;51.356;-2.906;2023-11-21T04:08:04;2.97;;;1.10;;
70369;SDS011;57790;51.356;-2.906;2023-11-21T04:11:05;3.00;;;0.70;;
70369;SDS011;57790;51.356;-2.906;2023-11-21T04:14:05;1.87;;;0.70;;
70369;SDS011;57790;51.356;-2.906;2023-11-21T04:17:06;2.20;;;0.70;;
70369;SDS011;57790;51.356;-2.906;2023-11-21T04:20:07;2.70;;;0.70;;
70369;SDS011;57790;51.356;-2.906;2023-11-21T04:23:09;3.92;;;0.90;;
70369;SDS011;57790;51.356;-2.906;2023-11-21T04:26:10;1.93;;;0.60;;
70369;SDS011;57790;51.356;-2.906;2023-11-21T04:29:10;3.87;;;0.90;;
70369;SDS011;57790;51.356;-2.906;2023-11-21T04:32:11;2.53;;;0.80;;
70369;SDS011;57790;51.356;-2.906;2023-11-21T04:35:12;1.60;;;0.60;;
70369;SDS011;57790;51.356;-2.906;2023-11-21T04:38:13;2.67;;;0.80;;
70369;SDS011;57790;51.356;-2.906;2023-11-21T04:41:13;3.17;;;0.73;;
70369;SDS011;57790;51.356;-2.906;2023-11-21T04:44:14;3.40;;;0.80;;
70369;SDS011;57790;51.356;-2.906;2023-11-21T04:47:16;2.42;;;0.70;;
70369;SDS011;57790;51.356;-2.906;2023-11-21T04:50:19;2.90;;;0.85;;
70369;SDS011;57790;51.356;-2.906;2023-11-21T04:53:20;1.90;;;0.50;;
70369;SDS011;57790;51.356;-2.906;2023-11-21T04:56:20;3.45;;;0.80;;
70369;SDS011;57790;51.356;-2.906;2023-11-21T04:59:21;3.87;;;0.80;;
70369;SDS011;57790;51.356;-2.906;2023-11-21T05:02:24;3.30;;;0.93;;
70369;SDS011;57790;51.356;-2.906;2023-11-21T05:05:24;4.13;;;0.90;;
70369;SDS011;57790;51.356;-2.906;2023-11-21T05:08:25;3.73;;;0.80;;
70369;SDS011;57790;51.356;-2.906;2023-11-21T05:11:26;1.70;;;0.52;;
70369;SDS011;57790;51.356;-2.906;2023-11-21T05:14:27;1.70;;;0.50;;
70369;SDS011;57790;51.356;-2.906;2023-11-21T05:17:28;4.15;;;0.50;;
70369;SDS011;57790;51.356;-2.906;2023-11-21T05:20:28;1.47;;;0.33;;
70369;SDS011;57790;51.356;-2.906;2023-11-21T05:23:28;1.20;;;0.40;;
70369;SDS011;57790;51.356;-2.906;2023-11-21T05:26:29;2.33;;;0.60;;
70369;SDS011;57790;51.356;-2.906;2023-11-21T05:29:29;4.10;;;1.57;;
70369;SDS011;57790;51.356;-2.906;2023-11-21T05:32:29;3.03;;;0.40;;
70369;SDS011;57790;51.356;-2.906;2023-11-21T05:35:30;1.20;;;0.50;;
70369;SDS011;57790;51.356;-2.906;2023-11-21T05:38:31;1.52;;;0.40;;
70369;SDS011;57790;51.356;-2.906;2023-11-21T05:41:31;2.50;;;0.50;;
70369;SDS011;57790;51.356;-2.906;2023-11-21T05:44:31;2.07;;;0.40;;
70369;SDS011;57790;51.356;-2.906;2023-11-21T05:47:32;2.30;;;0.60;;
70369;SDS011;57790;51.356;-2.906;2023-11-21T05:50:32;1.75;;;0.40;;
70369;SDS011;57790;51.356;-2.906;2023-11-21T05:53:33;1.10;;;0.27;;
70369;SDS011;57790;51.356;-2.906;2023-11-21T05:56:33;1.43;;;0.40;;
70369;SDS011;57790;51.356;-2.906;2023-11-21T05:59:34;2.40;;;0.57;;
70369;SDS011;57790;51.356;-2.906;2023-11-21T06:02:34;1.40;;;0.50;;
70369;SDS011;57790;51.356;-2.906;2023-11-21T06:05:35;2.33;;;0.50;;
70369;SDS011;57790;51.356;-2.906;2023-11-21T06:08:35;1.73;;;0.37;;
70369;SDS011;57790;51.356;-2.906;2023-11-21T06:11:36;1.63;;;0.30;;
70369;SDS011;57790;51.356;-2.906;2023-11-21T06:14:36;1.03;;;0.30;;
70369;SDS011;57790;51.356;-2.906;2023-11-21T06:17:37;2.40;;;0.33;;
70369;SDS011;57790;51.356;-2.906;2023-11-21T06:20:37;1.17;;;0.40;;
70369;SDS011;57790;51.356;-2.906;2023-11-21T06:23:38;1.67;;;0.28;;
70369;SDS011;57790;51.356;-2.906;2023-11-21T06:26:38;0.87;;;0.30;;
70369;SDS011;57790;51.356;-2.906;2023-11-21T06:29:38;1.07;;;0.40;;
70369;SDS011;57790;51.356;-2.906;2023-11-21T06:32:39;1.53;;;0.40;;
70369;SDS011;57790;51.356;-2.906;2023-11-21T06:35:40;0.80;;;0.30;;
70369;SDS011;57790;51.356;-2.906;2023-11-21T06:38:40;1.90;;;0.47;;
70369;SDS011;57790;51.356;-2.906;2023-11-21T06:41:40;2.03;;;0.43;;
70369;SDS011;57790;51.356;-2.906;2023-11-21T06:44:41;1.53;;;0.30;;
70369;SDS011;57790;51.356;-2.906;2023-11-21T06:47:41;1.70;;;0.40;;
70369;SDS011;57790;51.356;-2.906;2023-11-21T06:50:42;2.30;;;0.40;;
70369;SDS011;57790;51.356;-2.906;2023-11-21T06:53:42;2.67;;;0.30;;
70369;SDS011;57790;51.356;-2.906;2023-11-21T06:56:43;2.05;;;0.38;;
70369;SDS011;57790;51.356;-2.906;2023-11-21T06:59:44;1.20;;;0.40;;
70369;SDS011;57790;51.356;-2.906;2023-11-21T07:02:44;2.60;;;0.30;;
70369;SDS011;57790;51.356;-2.906;2023-11-21T07:05:45;1.67;;;0.20;;
70369;SDS011;57790;51.356;-2.906;2023-11-21T07:08:45;1.60;;;0.40;;
70369;SDS011;57790;51.356;-2.906;2023-11-21T07:11:47;1.00;;;0.30;;
70369;SDS011;57790;51.356;-2.906;2023-11-21T07:14:48;2.13;;;0.30;;
70369;SDS011;57790;51.356;-2.906;2023-11-21T07:17:49;2.60;;;0.50;;
70369;SDS011;57790;51.356;-2.906;2023-11-21T07:20:49;2.53;;;0.43;;
70369;SDS011;57790;51.356;-2.906;2023-11-21T07:23:50;1.08;;;0.30;;
70369;SDS011;57790;51.356;-2.906;2023-11-21T07:26:50;2.10;;;0.47;;
70369;SDS011;57790;51.356;-2.906;2023-11-21T07:29:51;1.33;;;0.30;;
70369;SDS011;57790;51.356;-2.906;2023-11-21T07:32:51;1.33;;;0.37;;
70369;SDS011;57790;51.356;-2.906;2023-11-21T07:35:52;0.60;;;0.30;;
70369;SDS011;57790;51.356;-2.906;2023-11-21T07:38:52;1.00;;;0.30;;
70369;SDS011;57790;51.356;-2.906;2023-11-21T07:41:53;1.20;;;0.40;;
70369;SDS011;57790;51.356;-2.906;2023-11-21T07:44:54;1.75;;;0.40;;
70369;SDS011;57790;51.356;-2.906;2023-11-21T07:47:54;1.00;;;0.37;;
70369;SDS011;57790;51.356;-2.906;2023-11-21T07:50:55;0.60;;;0.20;;
70369;SDS011;57790;51.356;-2.906;2023-11-21T07:53:56;0.63;;;0.30;;
70369;SDS011;57790;51.356;-2.906;2023-11-21T07:56:56;2.40;;;0.50;;
70369;SDS011;57790;51.356;-2.906;2023-11-21T07:59:56;1.33;;;0.40;;
70369;SDS011;57790;51.356;-2.906;2023-11-21T08:02:57;0.80;;;0.32;;
70369;SDS011;57790;51.356;-2.906;2023-11-21T08:05:58;1.10;;;0.27;;
70369;SDS011;57790;51.356;-2.906;2023-11-21T08:08:59;0.93;;;0.38;;
70369;SDS011;57790;51.356;-2.906;2023-11-21T08:12:00;0.83;;;0.33;;
70369;SDS011;57790;51.356;-2.906;2023-11-21T08:15:02;1.65;;;0.30;;
70369;SDS011;57790;51.356;-2.906;2023-11-21T08:18:03;0.70;;;0.20;;
70369;SDS011;57790;51.356;-2.906;2023-11-21T08:21:04;1.77;;;0.30;;
70369;SDS011;57790;51.356;-2.906;2023-11-21T08:24:06;1.48;;;0.30;;
70369;SDS011;57790;51.356;-2.906;2023-11-21T08:27:10;0.87;;;0.30;;
70369;SDS011;57790;51.356;-2.906;2023-11-21T08:30:11;2.58;;;0.30;;
70369;SDS011;57790;51.356;-2.906;2023-11-21T08:33:14;1.30;;;0.30;;
70369;SDS011;57790;51.356;-2.906;2023-11-21T08:36:14;0.80;;;0.40;;
70369;SDS011;57790;51.356;-2.906;2023-11-21T08:39:15;1.38;;;0.38;;
70369;SDS011;57790;51.356;-2.906;2023-11-21T08:42:16;1.10;;;0.30;;
70369;SDS011;57790;51.356;-2.906;2023-11-21T08:45:18;0.90;;;0.30;;
70369;SDS011;57790;51.356;-2.906;2023-11-21T08:48:19;1.58;;;0.40;;
70369;SDS011;57790;51.356;-2.906;2023-11-21T08:51:19;1.57;;;0.40;;
70369;SDS011;57790;51.356;-2.906;2023-11-21T08:54:20;1.85;;;0.43;;
70369;SDS011;57790;51.356;-2.906;2023-11-21T08:57:24;2.50;;;0.30;;
70369;SDS011;57790;51.356;-2.906;2023-11-21T09:00:25;2.22;;;0.35;;
70369;SDS011;57790;51.356;-2.906;2023-11-21T09:03:25;1.20;;;0.30;;
70369;SDS011;57790;51.356;-2.906;2023-11-21T09:06:25;2.73;;;0.53;;
70369;SDS011;57790;51.356;-2.906;2023-11-21T09:09:26;0.95;;;0.40;;
70369;SDS011;57790;51.356;-2.906;2023-11-21T09:12:26;1.53;;;0.30;;
70369;SDS011;57790;51.356;-2.906;2023-11-21T09:15:27;0.77;;;0.20;;
70369;SDS011;57790;51.356;-2.906;2023-11-21T09:18:27;0.63;;;0.20;;
70369;SDS011;57790;51.356;-2.906;2023-11-21T09:21:28;4.90;;;0.60;;
70369;SDS011;57790;51.356;-2.906;2023-11-21T09:24:28;2.00;;;0.38;;
70369;SDS011;57790;51.356;-2.906;2023-11-21T09:27:29;1.10;;;0.30;;
70369;SDS011;57790;51.356;-2.906;2023-11-21T09:30:29;1.30;;;0.37;;
70369;SDS011;57790;51.356;-2.906;2023-11-21T09:33:30;3.22;;;0.50;;
70369;SDS011;57790;51.356;-2.906;2023-11-21T09:36:31;3.03;;;0.40;;
70369;SDS011;57790;51.356;-2.906;2023-11-21T09:39:33;1.77;;;0.40;;
70369;SDS011;57790;51.356;-2.906;2023-11-21T09:42:38;2.00;;;0.40;;
70369;SDS011;57790;51.356;-2.906;2023-11-21T09:45:42;3.42;;;0.40;;
70369;SDS011;57790;51.356;-2.906;2023-11-21T09:48:48;3.03;;;0.50;;
70369;SDS011;57790;51.356;-2.906;2023-11-21T09:51:52;2.20;;;0.50;;
70369;SDS011;57790;51.356;-2.906;2023-11-21T09:54:56;1.67;;;0.40;;
70369;SDS011;57790;51.356;-2.906;2023-11-21T09:58:00;2.00;;;0.40;;
70369;SDS011;57790;51.356;-2.906;2023-11-21T10:01:01;2.10;;;0.30;;
70369;SDS011;57790;51.356;-2.906;2023-11-21T10:04:03;2.20;;;0.53;;
70369;SDS011;57790;51.356;-2.906;2023-11-21T10:07:04;1.92;;;0.40;;
70369;SDS011;57790;51.356;-2.906;2023-11-21T10:10:09;1.87;;;0.40;;
70369;SDS011;57790;51.356;-2.906;2023-11-21T10:13:10;1.67;;;0.37;;
70369;SDS011;57790;51.356;-2.906;2023-11-21T10:16:13;2.40;;;0.40;;
70369;SDS011;57790;51.356;-2.906;2023-11-21T10:19:16;2.00;;;0.30;;
70369;SDS011;57790;51.356;-2.906;2023-11-21T10:22:17;1.87;;;0.30;;
70369;SDS011;57790;51.356;-2.906;2023-11-21T10:25:19;1.30;;;0.40;;
70369;SDS011;57790;51.356;-2.906;2023-11-21T10:28:20;1.95;;;0.50;;
70369;SDS011;57790;51.356;-2.906;2023-11-21T10:31:21;1.33;;;0.30;;
70369;SDS011;57790;51.356;-2.906;2023-11-21T10:34:21;3.03;;;0.35;;
70369;SDS011;57790;51.356;-2.906;2023-11-21T10:37:22;2.50;;;0.50;;
70369;SDS011;57790;51.356;-2.906;2023-11-21T10:40:22;1.73;;;0.40;;
70369;SDS011;57790;51.356;-2.906;2023-11-21T10:43:25;2.33;;;0.50;;
70369;SDS011;57790;51.356;-2.906;2023-11-21T10:46:26;2.53;;;0.50;;
70369;SDS011;57790;51.356;-2.906;2023-11-21T10:49:27;2.50;;;0.50;;
70369;SDS011;57790;51.356;-2.906;2023-11-21T10:52:28;1.60;;;0.40;;
70369;SDS011;57790;51.356;-2.906;2023-11-21T10:55:29;1.65;;;0.40;;
70369;SDS011;57790;51.356;-2.906;2023-11-21T10:58:29;2.77;;;0.40;;
70369;SDS011;57790;51.356;-2.906;2023-11-21T11:01:32;2.42;;;0.60;;
70369;SDS011;57790;51.356;-2.906;2023-11-21T11:04:33;4.65;;;0.60;;
70369;SDS011;57790;51.356;-2.906;2023-11-21T11:07:37;2.60;;;0.40;;
70369;SDS011;57790;51.356;-2.906;2023-11-21T11:10:43;1.52;;;0.40;;
70369;SDS011;57790;51.356;-2.906;2023-11-21T11:13:46;3.20;;;0.50;;
70369;SDS011;57790;51.356;-2.906;2023-11-21T11:16:47;3.10;;;0.50;;
70369;SDS011;57790;51.356;-2.906;2023-11-21T11:19:49;4.82;;;0.60;;
70369;SDS011;57790;51.356;-2.906;2023-11-21T11:32:58;2.20;;;0.63;;
70369;SDS011;57790;51.356;-2.906;2023-11-21T11:36:10;4.25;;;0.73;;
70369;SDS011;57790;51.356;-2.906;2023-11-21T11:42:38;3.67;;;0.63;;
70369;SDS011;57790;51.356;-2.906;2023-11-21T11:45:39;3.22;;;0.60;;
70369;SDS011;57790;51.356;-2.906;2023-11-21T11:48:41;5.43;;;0.60;;
70369;SDS011;57790;51.356;-2.906;2023-11-21T11:51:42;5.88;;;1.10;;
70369;SDS011;57790;51.356;-2.906;2023-11-21T11:54:42;2.93;;;0.60;;
70369;SDS011;57790;51.356;-2.906;2023-11-21T11:57:44;6.78;;;0.80;;
70369;SDS011;57790;51.356;-2.906;2023-11-21T12:00:50;3.07;;;0.83;;
70369;SDS011;57790;51.356;-2.906;2023-11-21T12:07:17;3.28;;;0.80;;
70369;SDS011;57790;51.356;-2.906;2023-11-21T12:10:18;5.87;;;1.13;;
70369;SDS011;57790;51.356;-2.906;2023-11-21T12:13:24;2.47;;;0.60;;
70369;SDS011;57790;51.356;-2.906;2023-11-21T12:16:25;3.40;;;0.93;;
70369;SDS011;57790;51.356;-2.906;2023-11-21T12:19:27;3.78;;;0.70;;
70369;SDS011;57790;51.356;-2.906;2023-11-21T12:22:28;3.92;;;0.80;;
70369;SDS011;57790;51.356;-2.906;2023-11-21T12:25:29;2.37;;;0.70;;
70369;SDS011;57790;51.356;-2.906;2023-11-21T12:28:34;4.65;;;0.90;;
70369;SDS011;57790;51.356;-2.906;2023-11-21T12:31:34;3.07;;;0.70;;
70369;SDS011;57790;51.356;-2.906;2023-11-21T12:34:35;2.88;;;0.70;;
70369;SDS011;57790;51.356;-2.906;2023-11-21T12:37:39;2.93;;;0.87;;
70369;SDS011;57790;51.356;-2.906;2023-11-21T12:40:42;2.80;;;0.82;;
70369;SDS011;57790;51.356;-2.906;2023-11-21T12:43:44;2.85;;;0.70;;
70369;SDS011;57790;51.356;-2.906;2023-11-21T12:46:44;2.90;;;0.80;;
70369;SDS011;57790;51.356;-2.906;2023-11-21T12:49:45;4.55;;;1.10;;
70369;SDS011;57790;51.356;-2.906;2023-11-21T12:52:45;3.23;;;0.70;;
70369;SDS011;57790;51.356;-2.906;2023-11-21T12:55:49;3.60;;;0.80;;
70369;SDS011;57790;51.356;-2.906;2023-11-21T12:58:53;3.70;;;0.70;;
70369;SDS011;57790;51.356;-2.906;2023-11-21T13:01:57;3.40;;;0.77;;
70369;SDS011;57790;51.356;-2.906;2023-11-21T13:04:59;5.32;;;1.00;;
70369;SDS011;57790;51.356;-2.906;2023-11-21T13:08:07;5.28;;;0.70;;
70369;SDS011;57790;51.356;-2.906;2023-11-21T13:11:08;3.57;;;0.80;;
70369;SDS011;57790;51.356;-2.906;2023-11-21T13:14:10;2.30;;;0.70;;
70369;SDS011;57790;51.356;-2.906;2023-11-21T13:17:11;3.63;;;0.80;;
70369;SDS011;57790;51.356;-2.906;2023-11-21T13:20:12;7.00;;;0.90;;
70369;SDS011;57790;51.356;-2.906;2023-11-21T13:23:15;3.45;;;0.75;;
70369;SDS011;57790;51.356;-2.906;2023-11-21T13:26:16;3.65;;;0.77;;
70369;SDS011;57790;51.356;-2.906;2023-11-21T13:29:17;3.03;;;0.73;;
70369;SDS011;57790;51.356;-2.906;2023-11-21T13:32:17;4.03;;;0.83;;
70369;SDS011;57790;51.356;-2.906;2023-11-21T13:35:20;6.28;;;0.80;;
70369;SDS011;57790;51.356;-2.906;2023-11-21T13:38:21;2.63;;;0.83;;
70369;SDS011;57790;51.356;-2.906;2023-11-21T13:41:24;4.32;;;0.80;;
70369;SDS011;57790;51.356;-2.906;2023-11-21T13:44:30;4.50;;;0.90;;
70369;SDS011;57790;51.356;-2.906;2023-11-21T13:47:38;3.60;;;0.73;;
70369;SDS011;57790;51.356;-2.906;2023-11-21T13:50:40;3.90;;;0.80;;
70369;SDS011;57790;51.356;-2.906;2023-11-21T13:53:48;3.55;;;0.98;;
70369;SDS011;57790;51.356;-2.906;2023-11-21T13:56:50;6.50;;;1.05;;
70369;SDS011;57790;51.356;-2.906;2023-11-21T13:59:51;6.40;;;1.20;;
70369;SDS011;57790;51.356;-2.906;2023-11-21T14:02:51;6.13;;;1.17;;
70369;SDS011;57790;51.356;-2.906;2023-11-21T14:05:52;5.07;;;1.20;;
70369;SDS011;57790;51.356;-2.906;2023-11-21T14:08:52;5.83;;;1.00;;
70369;SDS011;57790;51.356;-2.906;2023-11-21T14:11:56;4.97;;;1.17;;
70369;SDS011;57790;51.356;-2.906;2023-11-21T14:14:57;4.10;;;1.10;;
70369;SDS011;57790;51.356;-2.906;2023-11-21T14:17:58;4.73;;;0.80;;
70369;SDS011;57790;51.356;-2.906;2023-11-21T14:21:02;4.13;;;1.10;;
70369;SDS011;57790;51.356;-2.906;2023-11-21T14:24:03;4.73;;;0.97;;
70369;SDS011;57790;51.356;-2.906;2023-11-21T14:27:09;3.30;;;1.00;;
70369;SDS011;57790;51.356;-2.906;2023-11-21T14:30:10;4.47;;;0.90;;
70369;SDS011;57790;51.356;-2.906;2023-11-21T14:33:13;4.85;;;0.90;;
70369;SDS011;57790;51.356;-2.906;2023-11-21T14:36:16;2.78;;;0.90;;
70369;SDS011;57790;51.356;-2.906;2023-11-21T14:39:17;3.20;;;0.73;;
70369;SDS011;57790;51.356;-2.906;2023-11-21T14:42:23;3.17;;;0.83;;
70369;SDS011;57790;51.356;-2.906;2023-11-21T14:45:29;2.53;;;0.80;;
70369;SDS011;57790;51.356;-2.906;2023-11-21T14:48:30;5.07;;;0.80;;
70369;SDS011;57790;51.356;-2.906;2023-11-21T14:51:42;5.25;;;0.82;;
70369;SDS011;57790;51.356;-2.906;2023-11-21T14:55:00;3.65;;;0.90;;
70369;SDS011;57790;51.356;-2.906;2023-11-21T14:58:34;3.88;;;0.77;;
70369;SDS011;57790;51.356;-2.906;2023-11-21T15:01:36;4.00;;;1.00;;
70369;SDS011;57790;51.356;-2.906;2023-11-21T15:04:54;4.30;;;0.87;;
70369;SDS011;57790;51.356;-2.906;2023-11-21T15:08:02;3.08;;;0.90;;
70369;SDS011;57790;51.356;-2.906;2023-11-21T15:11:20;5.63;;;0.70;;
70369;SDS011;57790;51.356;-2.906;2023-11-21T15:14:25;3.08;;;0.70;;
70369;SDS011;57790;51.356;-2.906;2023-11-21T15:17:31;3.83;;;0.70;;
70369;SDS011;57790;51.356;-2.906;2023-11-21T15:20:32;3.83;;;0.83;;
70369;SDS011;57790;51.356;-2.906;2023-11-21T15:23:33;2.72;;;0.70;;
70369;SDS011;57790;51.356;-2.906;2023-11-21T15:26:35;3.10;;;0.63;;
70369;SDS011;57790;51.356;-2.906;2023-11-21T15:29:35;4.73;;;0.80;;
70369;SDS011;57790;51.356;-2.906;2023-11-21T15:32:35;3.17;;;0.80;;
70369;SDS011;57790;51.356;-2.906;2023-11-21T15:35:36;3.03;;;0.90;;
70369;SDS011;57790;51.356;-2.906;2023-11-21T15:38:38;4.03;;;0.70;;
70369;SDS011;57790;51.356;-2.906;2023-11-21T15:41:39;1.95;;;0.70;;
70369;SDS011;57790;51.356;-2.906;2023-11-21T15:44:39;2.00;;;0.60;;
70369;SDS011;57790;51.356;-2.906;2023-11-21T15:47:40;4.53;;;0.70;;
70369;SDS011;57790;51.356;-2.906;2023-11-21T15:50:40;2.23;;;0.70;;
70369;SDS011;57790;51.356;-2.906;2023-11-21T15:53:41;4.47;;;0.65;;
70369;SDS011;57790;51.356;-2.906;2023-11-21T15:56:41;5.87;;;0.70;;
70369;SDS011;57790;51.356;-2.906;2023-11-21T15:59:42;1.95;;;0.50;;
70369;SDS011;57790;51.356;-2.906;2023-11-21T16:02:45;2.50;;;0.70;;
70369;SDS011;57790;51.356;-2.906;2023-11-21T16:05:46;2.47;;;0.60;;
70369;SDS011;57790;51.356;-2.906;2023-11-21T16:08:46;2.27;;;0.67;;
70369;SDS011;57790;51.356;-2.906;2023-11-21T16:11:48;1.93;;;0.50;;
70369;SDS011;57790;51.356;-2.906;2023-11-21T16:14:53;3.38;;;0.63;;
70369;SDS011;57790;51.356;-2.906;2023-11-21T16:17:53;1.97;;;0.50;;
70369;SDS011;57790;51.356;-2.906;2023-11-21T16:20:54;3.50;;;0.70;;
70369;SDS011;57790;51.356;-2.906;2023-11-21T16:23:54;2.27;;;0.60;;
70369;SDS011;57790;51.356;-2.906;2023-11-21T16:26:55;1.67;;;0.60;;
70369;SDS011;57790;51.356;-2.906;2023-11-21T16:29:57;3.50;;;0.63;;
70369;SDS011;57790;51.356;-2.906;2023-11-21T16:32:58;2.28;;;0.50;;
70369;SDS011;57790;51.356;-2.906;2023-11-21T16:35:58;2.33;;;0.60;;
70369;SDS011;57790;51.356;-2.906;2023-11-21T16:38:59;2.50;;;0.53;;
70369;SDS011;57790;51.356;-2.906;2023-11-21T16:41:59;2.87;;;0.80;;
70369;SDS011;57790;51.356;-2.906;2023-11-21T16:45:00;3.73;;;0.67;;
70369;SDS011;57790;51.356;-2.906;2023-11-21T16:48:01;2.67;;;0.60;;
70369;SDS011;57790;51.356;-2.906;2023-11-21T16:51:03;2.53;;;0.60;;
70369;SDS011;57790;51.356;-2.906;2023-11-21T16:54:03;2.57;;;0.67;;
70369;SDS011;57790;51.356;-2.906;2023-11-21T16:57:04;2.25;;;0.60;;
70369;SDS011;57790;51.356;-2.906;2023-11-21T17:00:04;4.77;;;0.80;;
70369;SDS011;57790;51.356;-2.906;2023-11-21T17:03:11;5.70;;;0.90;;
70369;SDS011;57790;51.356;-2.906;2023-11-21T17:06:12;1.83;;;0.50;;
70369;SDS011;57790;51.356;-2.906;2023-11-21T17:09:12;3.43;;;0.70;;
70369;SDS011;57790;51.356;-2.906;2023-11-21T17:12:17;3.13;;;0.60;;
70369;SDS011;57790;51.356;-2.906;2023-11-21T17:15:18;2.80;;;0.70;;
70369;SDS011;57790;51.356;-2.906;2023-11-21T17:18:19;3.53;;;0.75;;
70369;SDS011;57790;51.356;-2.906;2023-11-21T17:21:19;4.00;;;0.70;;
70369;SDS011;57790;51.356;-2.906;2023-11-21T17:24:20;4.60;;;0.67;;
70369;SDS011;57790;51.356;-2.906;2023-11-21T17:27:20;4.63;;;0.93;;
70369;SDS011;57790;51.356;-2.906;2023-11-21T17:30:22;2.45;;;0.60;;
70369;SDS011;57790;51.356;-2.906;2023-11-21T17:33:22;4.57;;;0.87;;
70369;SDS011;57790;51.356;-2.906;2023-11-21T17:36:23;2.77;;;0.63;;
70369;SDS011;57790;51.356;-2.906;2023-11-21T17:39:24;4.20;;;1.00;;
70369;SDS011;57790;51.356;-2.906;2023-11-21T17:42:25;3.33;;;0.80;;
70369;SDS011;57790;51.356;-2.906;2023-11-21T17:45:25;4.85;;;1.00;;
70369;SDS011;57790;51.356;-2.906;2023-11-21T17:48:26;4.43;;;0.70;;
70369;SDS011;57790;51.356;-2.906;2023-11-21T17:51:29;2.57;;;0.70;;
70369;SDS011;57790;51.356;-2.906;2023-11-21T17:54:30;5.63;;;0.77;;
70369;SDS011;57790;51.356;-2.906;2023-11-21T17:57:33;2.13;;;0.50;;
70369;SDS011;57790;51.356;-2.906;2023-11-21T18:00:35;5.22;;;0.57;;
70369;SDS011;57790;51.356;-2.906;2023-11-21T18:03:36;4.20;;;1.00;;
70369;SDS011;57790;51.356;-2.906;2023-11-21T18:06:39;2.63;;;0.63;;
70369;SDS011;57790;51.356;-2.906;2023-11-21T18:09:42;2.23;;;0.77;;
70369;SDS011;57790;51.356;-2.906;2023-11-21T18:12:43;3.73;;;0.67;;